^^
Datos históricos de la estación: Murcia-Puente Tocinos
Diario Informe para Septiembre 14, 2019 Unidades:  Métrico    Ingés   Ambas
Diario Semanal Mensual Anual
  Máxima: Mínima: Promedio:
Temperatura: 19.7 °C 11.3 °C 15.5 °C
Punto de rocio: 8.4 °C 5.9 °C 7.2 °C
Humedad: 72.6% 47% 58%
Velocidad viento: 16.4km/h 0km/h 9.5km/h
Racha viento: 30.6km/h - -
Viento- - SO
Presión: 1017.0 hPa 1014.4 hPa -
Precipitación: 0.0 mm    
 
 
Tabla de datos para Septiembre 14, 2019
Hora Temperatura Punto de rocio Presión Viento Velocidad viento Racha viento Humedad Intensidad lluvia(por hora) Nubes
00:04 17.1 °C 7.7 °C 1014.4 hPa SO 11.1 km/h 19.3 km/h 54% 0.0 mm
00:09 17.1 °C 7.7 °C 1014.7 hPa SO 11.1 km/h 12.9 km/h 53.8% 0.0 mm
00:14 17.2 °C 7.6 °C 1014.7 hPa SO 8.6 km/h 13 km/h 53% 0.0 mm
00:19 17.2 °C 7.6 °C 1014.7 hPa SO 6.9 km/h 8 km/h 53% 0.0 mm
00:24 17.2 °C 7.6 °C 1014.8 hPa SO 5.6 km/h 6.4 km/h 53% 0.0 mm
00:29 17.2 °C 7.5 °C 1014.8 hPa SO 4.7 km/h 5.8 km/h 53% 0.0 mm
00:34 17.1 °C 7.4 °C 1014.8 hPa SO 2 km/h 7.4 km/h 53% 0.0 mm
00:39 17.1 °C 7.6 °C 1014.9 hPa Calm   17.2 km/h 53.4% 0.0 mm
00:44 17.3 °C 7.6 °C 1014.9 hPa OSO 3.7 km/h 17.7 km/h 53% 0.0 mm
00:49 17.3 °C 7.5 °C 1014.9 hPa OSO 6.5 km/h 13 km/h 52.6% 0.0 mm
00:54 17.2 °C 7.6 °C 1015.1 hPa SSO 6.5 km/h 12.9 km/h 53% 0.0 mm
00:59 17.1 °C 7.5 °C 1015.1 hPa Sur 6.5 km/h 11.3 km/h 53.3% 0.0 mm
01:04 16.9 °C 7.5 °C 1015.1 hPa SSE 5.4 km/h 8 km/h 54% 0.0 mm
01:09 16.7 °C 7.5 °C 1015.1 hPa SE 4.7 km/h 8 km/h 54.6% 0.0 mm
01:14 16.5 °C 7.4 °C 1015.1 hPa SE 3.8 km/h 8 km/h 55% 0.0 mm
01:19 16.3 °C 7.4 °C 1015.1 hPa SE 3.2 km/h 4.8 km/h 55.6% 0.0 mm
01:24 16.3 °C 7.5 °C 1015.2 hPa SO 1.3 km/h 7.4 km/h 55.7% 0.0 mm
01:29 16.6 °C 7.5 °C 1015.2 hPa Calm   8 km/h 55% 0.0 mm
01:34 16.6 °C 7.5 °C 1015.2 hPa ONO 2.3 km/h 11.1 km/h 55% 0.0 mm
01:39 16.6 °C 7.5 °C 1015.2 hPa ONO 3.9 km/h 11.3 km/h 55% 0.0 mm
01:44 16.4 °C 7.5 °C 1015.1 hPa NO 3.9 km/h 11.3 km/h 55.7% 0.0 mm
01:49 15.9 °C 7.5 °C 1015.1 hPa ESE 3.9 km/h 9.7 km/h 57.4% 0.0 mm
01:54 15.4 °C 7.4 °C 1015.3 hPa ESE 4.5 km/h 9.7 km/h 58.9% 0.0 mm
01:59 15.2 °C 7.5 °C 1015.3 hPa ENE 5 km/h 8 km/h 60% 0.0 mm
02:04 15.2 °C 7.5 °C 1015.3 hPa NO 3.9 km/h 8 km/h 60% 0.0 mm
02:09 15.2 °C 7.5 °C 1015.3 hPa NO 3.2 km/h 8 km/h 60% 0.0 mm
02:14 15.2 °C 7.5 °C 1015.2 hPa SSE 4 km/h 9.3 km/h 60% 0.0 mm
02:19 14.8 °C 7.5 °C 1015.2 hPa SSE 4.7 km/h 9.7 km/h 61.3% 0.0 mm
02:24 14.4 °C 7.4 °C 1015.4 hPa SE 4.8 km/h 8 km/h 62.9% 0.0 mm
02:29 14.5 °C 7.5 °C 1015.4 hPa Sur 5 km/h 8 km/h 62.7% 0.0 mm
02:34 14.8 °C 7.5 °C 1015.4 hPa SE 4.8 km/h 8 km/h 61.9% 0.0 mm
02:39 14.9 °C 7.4 °C 1015.5 hPa ESE 4.7 km/h 7.4 km/h 61% 0.0 mm
02:44 14.6 °C 7.4 °C 1015.5 hPa ESE 4.2 km/h 15.6 km/h 62.2% 0.0 mm
02:49 13.9 °C 7.3 °C 1015.5 hPa SE 3.9 km/h 16.1 km/h 64.6% 0.0 mm
02:54 13.6 °C 7.4 °C 1015.5 hPa SSO 5 km/h 9.7 km/h 66% 0.0 mm
02:59 13.7 °C 7.4 °C 1015.5 hPa SO 5.8 km/h 8 km/h 66% 0.0 mm
03:04 13.7 °C 7.4 °C 1015.5 hPa SSE 4.6 km/h 8 km/h 66% 0.0 mm
03:09 13.7 °C 7.4 °C 1015.6 hPa SO 3.9 km/h 8 km/h 66% 0.0 mm
03:14 13.7 °C 7.5 °C 1015.6 hPa SO 4.3 km/h 8.4 km/h 66% 0.0 mm
03:19 13.9 °C 7.5 °C 1015.6 hPa OSO 4.7 km/h 13 km/h 65.6% 0.0 mm
03:24 14.1 °C 7.6 °C 1015.6 hPa Oeste 5.3 km/h 12.9 km/h 64.8% 0.0 mm
03:29 14.1 °C 7.4 °C 1015.5 hPa SSE 5.8 km/h 9.5 km/h 64.3% 0.0 mm
03:34 13.8 °C 7.4 °C 1015.5 hPa SSE 5.3 km/h 9.7 km/h 65.5% 0.0 mm
03:39 13.6 °C 7.5 °C 1015.6 hPa Sur 5 km/h 9.7 km/h 66.3% 0.0 mm
03:44 13.6 °C 7.5 °C 1015.6 hPa SSE 5 km/h 9.7 km/h 66.4% 0.0 mm
03:49 13.4 °C 7.4 °C 1015.6 hPa SE 5 km/h 11.9 km/h 67% 0.0 mm
03:54 13 °C 7.2 °C 1015.7 hPa SSE 6.5 km/h 13.7 km/h 67.7% 0.0 mm
03:59 12.7 °C 7.1 °C 1015.7 hPa SSO 7.6 km/h 14.5 km/h 69.1% 0.0 mm
04:04 12.4 °C 7.1 °C 1015.7 hPa SSO 6.5 km/h 8.4 km/h 70% 0.0 mm
04:09 12.3 °C 7.1 °C 1015.7 hPa SSE 5.8 km/h 11.1 km/h 70.5% 0.0 mm
04:14 12.2 °C 7.1 °C 1015.6 hPa SSO 6.2 km/h 11.3 km/h 71.1% 0.0 mm
04:19 12.2 °C 7.3 °C 1015.6 hPa SO 6.5 km/h 8 km/h 72% 0.0 mm
04:24 12.2 °C 7.2 °C 1015.6 hPa SSE 5 km/h 8 km/h 71.7% 0.0 mm
04:29 12.2 °C 7.1 °C 1015.6 hPa Sur 3.9 km/h 8 km/h 71% 0.0 mm
04:34 12.2 °C 7.1 °C 1015.6 hPa Sur 4.5 km/h 11.9 km/h 71% 0.0 mm
04:39 12.3 °C 7.1 °C 1015.6 hPa SSE 5 km/h 13 km/h 70.4% 0.0 mm
04:44 12.2 °C 7.1 °C 1015.5 hPa SSO 6.9 km/h 12.9 km/h 71% 0.0 mm
04:49 12.2 °C 7.1 °C 1015.5 hPa SO 8.4 km/h 11.9 km/h 71% 0.0 mm
04:54 12.2 °C 7.1 °C 1015.5 hPa SO 7.9 km/h 11.3 km/h 71% 0.0 mm
04:59 12.2 °C 7.1 °C 1015.3 hPa SO 7.6 km/h 9.7 km/h 71% 0.0 mm
05:04 12.2 °C 7 °C 1015.3 hPa Sur 6.9 km/h 9.7 km/h 70.7% 0.0 mm
05:09 12.2 °C 7 °C 1015.3 hPa Sur 6.5 km/h 13 km/h 70.7% 0.0 mm
05:14 12.1 °C 7 °C 1015.2 hPa Sur 7.1 km/h 13 km/h 71% 0.0 mm
05:19 11.9 °C 6.8 °C 1015.2 hPa SSO 7.6 km/h 12.9 km/h 71% 0.0 mm
05:24 12.2 °C 7 °C 1015.2 hPa OSO 7.6 km/h 11.3 km/h 70.8% 0.0 mm
05:29 12.3 °C 7 °C 1015.2 hPa SSO 7.6 km/h 11.3 km/h 69.9% 0.0 mm
05:34 12.3 °C 6.8 °C 1015.2 hPa SSE 7.2 km/h 11.3 km/h 69.4% 0.0 mm
05:39 12 °C 6.8 °C 1015.4 hPa Sur 6.9 km/h 13.7 km/h 70.6% 0.0 mm
05:44 11.8 °C 6.8 °C 1015.4 hPa SSO 8 km/h 14.5 km/h 71.7% 0.0 mm
05:49 11.8 °C 6.9 °C 1015.4 hPa SSO 8.7 km/h 12.9 km/h 72% 0.0 mm
05:54 11.9 °C 6.8 °C 1015.4 hPa SO 8.1 km/h 11.1 km/h 71.3% 0.0 mm
05:59 12.2 °C 7 °C 1015.3 hPa SO 7.6 km/h 11.3 km/h 70.4% 0.0 mm
06:04 12.4 °C 6.9 °C 1015.3 hPa SO 7.2 km/h 12.2 km/h 69% 0.0 mm
06:09 12.6 °C 6.9 °C 1015.5 hPa SO 6.9 km/h 13 km/h 68.2% 0.0 mm
06:14 12.8 °C 6.8 °C 1015.5 hPa SO 7.3 km/h 13 km/h 67.3% 0.0 mm
06:19 12.7 °C 6.7 °C 1015.5 hPa Sur 7.6 km/h 12.9 km/h 67% 0.0 mm
06:24 12.2 °C 6.6 °C 1015.6 hPa SSE 6.5 km/h 9.5 km/h 68.5% 0.0 mm
06:29 11.6 °C 6.5 °C 1015.6 hPa Sur 5.8 km/h 11.1 km/h 70.8% 0.0 mm
06:34 11.3 °C 6.5 °C 1015.6 hPa SSO 6.5 km/h 11.9 km/h 72.4% 0.0 mm
06:39 11.3 °C 6.5 °C 1015.6 hPa SSO 6.9 km/h 13.7 km/h 72.6% 0.0 mm
06:44 11.4 °C 6.5 °C 1015.6 hPa SSO 8 km/h 14.8 km/h 71.7% 0.0 mm
06:49 11.7 °C 6.5 °C 1015.6 hPa SSO 8.7 km/h 16.7 km/h 70.5% 0.0 mm
06:54 11.9 °C 6.4 °C 1015.6 hPa SSO 9.5 km/h 16.1 km/h 69.2% 0.0 mm
06:59 12.1 °C 6.5 °C 1015.6 hPa SSO 10 km/h 17.2 km/h 68.4% 0.0 mm
07:04 12.3 °C 6.5 °C 1015.6 hPa SSO 10 km/h 17.7 km/h 67.5% 0.0 mm
07:09 12.4 °C 6.5 °C 1015.9 hPa SO 10 km/h 14.5 km/h 67% 0.0 mm
07:14 12.5 °C 6.6 °C 1015.9 hPa SO 7.5 km/h 11.1 km/h 67% 0.0 mm
07:19 12.4 °C 6.5 °C 1015.9 hPa SO 5.8 km/h 11.3 km/h 67% 0.0 mm
07:24 12.4 °C 6.4 °C 1015.9 hPa Sur 5.1 km/h 9.3 km/h 67% 0.0 mm
07:29 12.4 °C 6.4 °C 1015.9 hPa SO 4.7 km/h 11.9 km/h 66.7% 0.0 mm
07:34 12.4 °C 6.2 °C 1015.9 hPa SO 6 km/h 14.8 km/h 66% 0.0 mm
07:39 12.3 °C 6.1 °C 1015.9 hPa SO 6.9 km/h 15.6 km/h 66% 0.0 mm
07:44 12.3 °C 6.1 °C 1015.8 hPa SSO 8 km/h 16.1 km/h 66% 0.0 mm
07:49 12.3 °C 6.1 °C 1015.8 hPa Sur 8.7 km/h 13 km/h 66% 0.0 mm
07:54 12.2 °C 6.1 °C 1016.0 hPa Sur 8.7 km/h 17.2 km/h 66.4% 0.0 mm
07:59 12.1 °C 6.2 °C 1016.0 hPa Sur 8.7 km/h 19 km/h 67% 0.0 mm
08:04 12 °C 6.1 °C 1016.0 hPa SSE 10.7 km/h 19.3 km/h 67% 0.0 mm
08:09 12 °C 6.1 °C 1016.0 hPa Sur 11.9 km/h 19.3 km/h 67% 0.0 mm
08:14 12.1 °C 5.9 °C 1016.0 hPa Sur 10.9 km/h 18.5 km/h 66.1% 0.0 mm
08:19 12.1 °C 5.9 °C 1016.0 hPa Sur 10.3 km/h 19.3 km/h 66% 0.0 mm
08:24 12.1 °C 5.9 °C 1016.1 hPa Sur 10.1 km/h 17.7 km/h 66% 0.0 mm
08:29 12.2 °C 6 °C 1016.1 hPa Sur 10 km/h 13 km/h 66% 0.0 mm
08:34 12.2 °C 6.1 °C 1016.1 hPa SSO 9.1 km/h 13 km/h 66% 0.0 mm
08:39 12.3 °C 6 °C 1016.1 hPa Sur 8.4 km/h 14.8 km/h 65.5% 0.0 mm
08:44 12.4 °C 6 °C 1016.1 hPa SSE 8.6 km/h 14.5 km/h 65% 0.0 mm
08:49 12.4 °C 6 °C 1016.1 hPa Sur 8.7 km/h 11.3 km/h 65% 0.0 mm
08:54 12.4 °C 6 °C 1016.3 hPa Sur 8 km/h 11.3 km/h 65% 0.0 mm
08:59 12.6 °C 6.1 °C 1016.3 hPa Sur 7.6 km/h 11.9 km/h 65% 0.0 mm
09:04 12.7 °C 6.2 °C 1016.3 hPa SSO 7.2 km/h 13.7 km/h 65% 0.0 mm
09:09 12.9 °C 6.2 °C 1016.4 hPa SSO 6.9 km/h 14.8 km/h 64% 0.0 mm
09:14 13.1 °C 6.4 °C 1016.4 hPa SSO 8 km/h 14.5 km/h 64% 0.0 mm
09:19 13.2 °C 6.3 °C 1016.4 hPa SSO 8.7 km/h 14.5 km/h 63.1% 0.0 mm
09:24 13.3 °C 6.4 °C 1016.4 hPa SSO 9.5 km/h 17.2 km/h 63% 0.0 mm
09:29 13.4 °C 6.5 °C 1016.4 hPa SSO 10 km/h 17.7 km/h 63% 0.0 mm
09:34 13.4 °C 6.5 °C 1016.4 hPa SSO 10.2 km/h 17.2 km/h 63% 0.0 mm
09:39 13.4 °C 6.5 °C 1016.7 hPa SSO 10.3 km/h 17.7 km/h 63% 0.0 mm
09:44 13.4 °C 6.5 °C 1016.7 hPa SSO 10.8 km/h 16.7 km/h 63% 0.0 mm
09:49 13.5 °C 6.6 °C 1016.7 hPa SSO 11.1 km/h 16.1 km/h 63% 0.0 mm
09:54 13.7 °C 6.7 °C 1016.8 hPa SSO 10.4 km/h 18.5 km/h 63% 0.0 mm
09:59 13.7 °C 6.8 °C 1016.8 hPa Sur 10 km/h 20.4 km/h 63% 0.0 mm
10:04 13.8 °C 6.9 °C 1016.8 hPa SSO 11.4 km/h 20.9 km/h 63% 0.0 mm
10:09 14 °C 7 °C 1016.9 hPa SSO 12.2 km/h 20.9 km/h 62.8% 0.0 mm
10:14 14.2 °C 7 °C 1016.9 hPa SSO 12.7 km/h 20.9 km/h 62% 0.0 mm
10:19 14.4 °C 7.1 °C 1016.9 hPa SSO 13 km/h 22.2 km/h 61.4% 0.0 mm
10:24 14.6 °C 7.2 °C 1017.0 hPa SSO 13 km/h 22.5 km/h 61% 0.0 mm
10:29 14.8 °C 7.3 °C 1017.0 hPa SSO 13 km/h 19.3 km/h 60.9% 0.0 mm
10:34 14.9 °C 7.2 °C 1017.0 hPa SSO 11.9 km/h 22.2 km/h 60% 0.0 mm
10:39 15 °C 7.3 °C 1017.0 hPa SSO 11.1 km/h 22.5 km/h 60% 0.0 mm
10:44 15.2 °C 7.5 °C 1017.0 hPa SSO 11.8 km/h 22.5 km/h 60% 0.0 mm
10:49 15.2 °C 7.5 °C 1017.0 hPa SSO 12.2 km/h 22.5 km/h 60% 0.0 mm
10:54 15.4 °C 7.7 °C 1017.0 hPa SSO 12.7 km/h 23.3 km/h 60% 0.0 mm
10:59 15.6 °C 7.7 °C 1016.9 hPa SSO 13 km/h 24.1 km/h 59.5% 0.0 mm
11:04 15.7 °C 7.7 °C 1016.9 hPa SSO 13.4 km/h 24.1 km/h 59% 0.0 mm
11:09 15.9 °C 7.7 °C 1017.0 hPa SSO 13.7 km/h 24.1 km/h 58.1% 0.0 mm
11:14 16.1 °C 7.6 °C 1017.0 hPa SSO 13.9 km/h 24.5 km/h 57.2% 0.0 mm
11:19 16.2 °C 7.7 °C 1017.0 hPa SSO 14 km/h 24.1 km/h 57.1% 0.0 mm
11:24 16.3 °C 7.8 °C 1017.0 hPa SSO 15 km/h 24.1 km/h 57% 0.0 mm
11:29 16.4 °C 7.9 °C 1016.9 hPa SSO 15.6 km/h 22.2 km/h 57% 0.0 mm
11:34 16.6 °C 7.9 °C 1016.9 hPa SSO 14.1 km/h 22.5 km/h 56.3% 0.0 mm
11:39 16.7 °C 7.9 °C 1016.9 hPa SSO 13 km/h 20.9 km/h 56% 0.0 mm
11:44 16.9 °C 8.1 °C 1016.8 hPa SSO 13.4 km/h 20.9 km/h 56% 0.0 mm
11:49 17.2 °C 8.2 °C 1016.8 hPa SO 13.7 km/h 20.9 km/h 55.6% 0.0 mm
11:54 17.4 °C 8.2 °C 1016.8 hPa SO 11.7 km/h 27.8 km/h 54.5% 0.0 mm
11:59 17.7 °C 8 °C 1016.7 hPa SO 10.3 km/h 27.4 km/h 53.1% 0.0 mm
12:04 17.9 °C 8.1 °C 1016.7 hPa OSO 12.4 km/h 24.1 km/h 52.8% 0.0 mm
12:09 17.9 °C 7.8 °C 1016.8 hPa OSO 13.7 km/h 27.8 km/h 51.8% 0.0 mm
12:14 17.9 °C 7.9 °C 1016.8 hPa Oeste 13.9 km/h 27.4 km/h 52% 0.0 mm
12:19 18.1 °C 8.1 °C 1016.8 hPa OSO 14 km/h 24.1 km/h 52% 0.0 mm
12:24 18.2 °C 8.2 °C 1016.8 hPa OSO 13.8 km/h 24.1 km/h 52% 0.0 mm
12:29 18.3 °C 8.1 °C 1016.7 hPa SO 13.7 km/h 22.5 km/h 51.6% 0.0 mm
12:34 18.2 °C 8.1 °C 1016.7 hPa SO 12.8 km/h 22.5 km/h 51.8% 0.0 mm
12:39 17.8 °C 8 °C 1016.7 hPa SSO 12.2 km/h 24.1 km/h 52.4% 0.0 mm
12:44 17.8 °C 8 °C 1016.4 hPa SSO 13.1 km/h 24.1 km/h 52.6% 0.0 mm
12:49 17.9 °C 8 °C 1016.4 hPa SSO 13.7 km/h 24.1 km/h 52.5% 0.0 mm
12:54 17.9 °C 8.1 °C 1016.4 hPa SO 13.3 km/h 22.5 km/h 52.9% 0.0 mm
12:59 18.1 °C 8.3 °C 1016.3 hPa SSO 13 km/h 22.2 km/h 52.5% 0.0 mm
13:04 18.3 °C 8.3 °C 1016.3 hPa SO 11.3 km/h 22.5 km/h 52.2% 0.0 mm
13:09 18.6 °C 8.3 °C 1016.3 hPa OSO 10.3 km/h 26.2 km/h 51.2% 0.0 mm
13:14 18.8 °C 8.4 °C 1016.1 hPa OSO 11.9 km/h 25.7 km/h 51% 0.0 mm
13:19 18.8 °C 8.2 °C 1016.1 hPa OSO 13 km/h 29.8 km/h 50% 0.0 mm
13:24 18.8 °C 8.2 °C 1016.1 hPa OSO 14.5 km/h 30.6 km/h 50% 0.0 mm
13:29 18.9 °C 8.2 °C 1016.0 hPa OSO 15.6 km/h 27.8 km/h 50% 0.0 mm
13:34 19 °C 8.4 °C 1016.0 hPa OSO 14.6 km/h 27.4 km/h 50% 0.0 mm
13:39 19.1 °C 8.4 °C 1016.0 hPa OSO 14 km/h 24.1 km/h 49.9% 0.0 mm
13:44 19.2 °C 8.3 °C 1015.7 hPa OSO 12.9 km/h 27.8 km/h 49.1% 0.0 mm
13:49 19.2 °C 8.2 °C 1015.7 hPa OSO 12.2 km/h 27.4 km/h 49% 0.0 mm
13:54 19.2 °C 8.3 °C 1015.7 hPa Oeste 12.7 km/h 24.1 km/h 49.2% 0.0 mm
13:59 19.3 °C 8.3 °C 1015.5 hPa OSO 13 km/h 22.2 km/h 49.1% 0.0 mm
14:04 19.3 °C 8.3 °C 1015.5 hPa Oeste 12.4 km/h 25.9 km/h 48.9% 0.0 mm
14:09 19.2 °C 8.2 °C 1015.5 hPa OSO 11.9 km/h 25.7 km/h 49% 0.0 mm
14:14 19.2 °C 8.2 °C 1015.4 hPa OSO 12.1 km/h 24.1 km/h 49% 0.0 mm
14:19 19.3 °C 8.3 °C 1015.4 hPa Oeste 12.2 km/h 24.1 km/h 49% 0.0 mm
14:24 19.4 °C 8.4 °C 1015.4 hPa Oeste 11.1 km/h 19.3 km/h 49% 0.0 mm
14:29 19.4 °C 8.3 °C 1015.2 hPa OSO 10.3 km/h 20.4 km/h 48.6% 0.0 mm
14:34 19.4 °C 8.2 °C 1015.2 hPa OSO 9.8 km/h 20.9 km/h 48.2% 0.0 mm
14:39 19.4 °C 8.3 °C 1015.2 hPa Oeste 9.5 km/h 21.7 km/h 48.7% 0.0 mm
14:44 19.4 °C 8.1 °C 1015.0 hPa Oeste 10.9 km/h 27.8 km/h 48% 0.0 mm
14:49 19.4 °C 8.2 °C 1015.0 hPa Oeste 11.9 km/h 27.4 km/h 48.3% 0.0 mm
14:54 19.6 °C 8.3 °C 1015.0 hPa OSO 12.6 km/h 20.9 km/h 48% 0.0 mm
14:59 19.5 °C 8.2 °C 1014.8 hPa Oeste 13 km/h 20.9 km/h 48.1% 0.0 mm
15:04 19.4 °C 8.4 °C 1014.8 hPa OSO 11.9 km/h 18.5 km/h 48.8% 0.0 mm
15:09 19.6 °C 8.3 °C 1014.8 hPa Oeste 11.1 km/h 21.7 km/h 48% 0.0 mm
15:14 19.5 °C 8.1 °C 1014.6 hPa Oeste 11.1 km/h 22.5 km/h 47.7% 0.0 mm
15:19 19.4 °C 8 °C 1014.6 hPa Oeste 11.1 km/h 22.5 km/h 47.8% 0.0 mm
15:24 19.5 °C 8.1 °C 1014.7 hPa OSO 10.5 km/h 24.5 km/h 47.7% 0.0 mm
15:29 19.7 °C 8.1 °C 1014.7 hPa Oeste 10 km/h 24.1 km/h 47.3% 0.0 mm
15:34 19.7 °C 8.1 °C 1014.7 hPa Oeste 12.2 km/h 24.1 km/h 47% 0.0 mm
15:39 19.7 °C 8.1 °C 1014.7 hPa Oeste 13.7 km/h 24.1 km/h 47% 0.0 mm
15:44 19.7 °C 8.1 °C 1014.5 hPa Oeste 12.2 km/h 20.9 km/h 47% 0.0 mm
15:49 19.7 °C 8.1 °C 1014.5 hPa Oeste 11.1 km/h 20.9 km/h 47.3% 0.0 mm
15:54 19.6 °C 8.2 °C 1014.6 hPa Oeste 11.6 km/h 20.9 km/h 47.9% 0.0 mm
15:59 19.5 °C 8.2 °C 1014.6 hPa Oeste 11.9 km/h 20.9 km/h 48% 0.0 mm
16:04 19.4 °C 8.1 °C 1014.6 hPa OSO 10.9 km/h 18 km/h 48% 0.0 mm
16:09 19.6 °C 8.3 °C 1014.6 hPa OSO 10.3 km/h 19.3 km/h 48% 0.0 mm
16:14 19.6 °C 8.3 °C 1014.6 hPa Oeste 9.3 km/h 18.5 km/h 48% 0.0 mm
16:19 19.6 °C 8.3 °C 1014.6 hPa Oeste 8.7 km/h 19.3 km/h 48% 0.0 mm
16:24 19.6 °C 8.3 °C 1014.6 hPa ONO 9.7 km/h 22.2 km/h 48% 0.0 mm
16:29 19.6 °C 8.3 °C 1014.6 hPa Oeste 10.3 km/h 22.5 km/h 48% 0.0 mm
16:34 19.6 °C 8.3 °C 1014.6 hPa Oeste 11.3 km/h 19.3 km/h 48% 0.0 mm
16:39 19.5 °C 8.2 °C 1014.9 hPa Oeste 11.9 km/h 22.2 km/h 48% 0.0 mm
16:44 19.4 °C 8.1 °C 1014.9 hPa Oeste 11.4 km/h 22.5 km/h 48% 0.0 mm
16:49 19.3 °C 8 °C 1014.9 hPa Oeste 11.1 km/h 20.9 km/h 48% 0.0 mm
16:54 19.3 °C 8 °C 1014.9 hPa Oeste 11.6 km/h 20.9 km/h 48% 0.0 mm
16:59 19.3 °C 8 °C 1014.9 hPa ONO 11.9 km/h 20.9 km/h 48% 0.0 mm
17:04 19.3 °C 8 °C 1014.9 hPa ONO 11.4 km/h 19 km/h 48% 0.0 mm
17:09 19.2 °C 7.9 °C 1014.9 hPa Oeste 11.1 km/h 19.3 km/h 48% 0.0 mm
17:14 19.1 °C 7.8 °C 1014.8 hPa Oeste 11.1 km/h 20.4 km/h 48% 0.0 mm
17:19 19 °C 7.9 °C 1014.8 hPa Oeste 11.1 km/h 20.9 km/h 48.6% 0.0 mm
17:24 18.8 °C 7.9 °C 1015.0 hPa Oeste 11.1 km/h 19.3 km/h 49% 0.0 mm
17:29 18.7 °C 7.8 °C 1015.0 hPa Oeste 11.1 km/h 22.2 km/h 49.2% 0.0 mm
17:34 18.6 °C 7.9 °C 1015.0 hPa OSO 11.1 km/h 22.5 km/h 50% 0.0 mm
17:39 18.5 °C 7.9 °C 1015.0 hPa OSO 11.1 km/h 14.8 km/h 50% 0.0 mm
17:44 18.4 °C 7.8 °C 1015.0 hPa OSO 9.5 km/h 15.6 km/h 50% 0.0 mm
17:49 18.3 °C 7.7 °C 1015.0 hPa OSO 8.4 km/h 18.5 km/h 50% 0.0 mm
17:54 18.2 °C 7.6 °C 1015.0 hPa OSO 9.3 km/h 19.3 km/h 50% 0.0 mm
17:59 18.1 °C 7.5 °C 1015.0 hPa Oeste 10 km/h 17.2 km/h 50% 0.0 mm
18:04 17.9 °C 7.6 °C 1015.0 hPa Oeste 9.2 km/h 17.7 km/h 50.7% 0.0 mm
18:09 17.8 °C 7.5 °C 1015.2 hPa Oeste 8.7 km/h 16.7 km/h 51% 0.0 mm
18:14 17.7 °C 7.4 °C 1015.2 hPa Oeste 9.5 km/h 19 km/h 51% 0.0 mm
18:19 17.6 °C 7.4 °C 1015.2 hPa Oeste 10 km/h 19.3 km/h 51.3% 0.0 mm
18:24 17.4 °C 7.4 °C 1015.3 hPa Oeste 10.2 km/h 20.4 km/h 51.9% 0.0 mm
18:29 17.3 °C 7.3 °C 1015.3 hPa Oeste 10.3 km/h 20.9 km/h 52% 0.0 mm
18:34 17.2 °C 7.3 °C 1015.3 hPa ONO 10.1 km/h 16.7 km/h 52.1% 0.0 mm
18:39 17.1 °C 7.4 °C 1015.4 hPa ONO 10 km/h 16.1 km/h 53% 0.0 mm
18:44 16.9 °C 7.3 °C 1015.4 hPa Oeste 9.2 km/h 20.4 km/h 53% 0.0 mm
18:49 16.8 °C 7.3 °C 1015.4 hPa ONO 8.7 km/h 20.9 km/h 53.3% 0.0 mm
18:54 16.7 °C 7.3 °C 1015.4 hPa Oeste 10.2 km/h 19.3 km/h 54% 0.0 mm
18:59 16.7 °C 7.3 °C 1015.3 hPa Oeste 11.1 km/h 19 km/h 54% 0.0 mm
19:04 16.6 °C 7.2 °C 1015.3 hPa Oeste 11.6 km/h 20.4 km/h 54% 0.0 mm
19:09 16.5 °C 7.2 °C 1015.4 hPa Oeste 11.9 km/h 20.9 km/h 54% 0.0 mm
19:14 16.4 °C 7.1 °C 1015.4 hPa ONO 12.1 km/h 20.9 km/h 54% 0.0 mm
19:19 16.3 °C 7 °C 1015.4 hPa ONO 12.2 km/h 20.9 km/h 54% 0.0 mm
19:24 16.2 °C 6.9 °C 1015.5 hPa ONO 12.7 km/h 20.9 km/h 54% 0.0 mm
19:29 16.1 °C 6.8 °C 1015.5 hPa ONO 13 km/h 24.5 km/h 54% 0.0 mm
19:34 16.1 °C 6.8 °C 1015.5 hPa Oeste 13.4 km/h 29.8 km/h 54% 0.0 mm
19:39 16 °C 6.7 °C 1015.7 hPa ONO 13.7 km/h 30.6 km/h 54% 0.0 mm
19:44 15.9 °C 6.7 °C 1015.7 hPa Oeste 15.3 km/h 25.9 km/h 54.3% 0.0 mm
19:49 15.8 °C 6.8 °C 1015.7 hPa Oeste 16.4 km/h 25.9 km/h 55% 0.0 mm
19:54 15.8 °C 6.7 °C 1015.8 hPa ONO 16.4 km/h 25.9 km/h 55% 0.0 mm
19:59 15.7 °C 6.7 °C 1015.8 hPa Oeste 16.4 km/h 25.7 km/h 55% 0.0 mm
20:04 15.7 °C 6.6 °C 1015.8 hPa ONO 14.3 km/h 24.1 km/h 55% 0.0 mm
20:09 15.6 °C 6.6 °C 1016.0 hPa Oeste 13 km/h 24.5 km/h 55% 0.0 mm
20:14 15.5 °C 6.5 °C 1016.0 hPa Oeste 12.4 km/h 24.1 km/h 55% 0.0 mm
20:19 15.4 °C 6.4 °C 1016.0 hPa OSO 11.9 km/h 20.9 km/h 55% 0.0 mm
20:24 15.3 °C 6.3 °C 1016.1 hPa OSO 11 km/h 19.3 km/h 55% 0.0 mm
20:29 15.2 °C 6.2 °C 1016.1 hPa OSO 10.3 km/h 19.3 km/h 55% 0.0 mm
20:34 15.2 °C 6.2 °C 1016.1 hPa OSO 10.3 km/h 19 km/h 55% 0.0 mm
20:39 15.2 °C 6.3 °C 1016.2 hPa OSO 10.3 km/h 19.3 km/h 55.2% 0.0 mm
20:44 15.1 °C 6.4 °C 1016.2 hPa OSO 10.3 km/h 17.7 km/h 56% 0.0 mm
20:49 15.1 °C 6.4 °C 1016.2 hPa OSO 10.3 km/h 18.5 km/h 56% 0.0 mm
20:54 15.1 °C 6.4 °C 1016.3 hPa OSO 9.8 km/h 19.3 km/h 56% 0.0 mm
20:59 15 °C 6.3 °C 1016.3 hPa SO 9.5 km/h 16.7 km/h 56% 0.0 mm
21:04 14.9 °C 6.3 °C 1016.3 hPa SO 9.8 km/h 18.5 km/h 56.3% 0.0 mm
21:09 14.8 °C 6.4 °C 1016.3 hPa SO 10 km/h 19.3 km/h 57% 0.0 mm
21:14 14.7 °C 6.3 °C 1016.3 hPa SO 10.2 km/h 19.3 km/h 57% 0.0 mm
21:19 14.7 °C 6.3 °C 1016.3 hPa SO 10.3 km/h 17.7 km/h 57% 0.0 mm
21:24 14.6 °C 6.2 °C 1016.3 hPa SO 9.8 km/h 18 km/h 57% 0.0 mm
21:29 14.6 °C 6.2 °C 1016.3 hPa SO 9.5 km/h 19.3 km/h 57.3% 0.0 mm
21:34 14.4 °C 6.3 °C 1016.3 hPa SO 9.5 km/h 16.1 km/h 58% 0.0 mm
21:39 14.4 °C 6.2 °C 1016.3 hPa SO 9.5 km/h 17.2 km/h 58% 0.0 mm
21:44 14.3 °C 6.2 °C 1016.2 hPa SO 9.5 km/h 19 km/h 58% 0.0 mm
21:49 14.3 °C 6.2 °C 1016.2 hPa SO 9.5 km/h 19.3 km/h 58.1% 0.0 mm
21:54 14.2 °C 6.3 °C 1016.4 hPa SO 10.9 km/h 19.3 km/h 59% 0.0 mm
21:59 14.1 °C 6.2 °C 1016.4 hPa SO 11.9 km/h 17.7 km/h 59% 0.0 mm
22:04 14.1 °C 6.2 °C 1016.4 hPa SO 10.4 km/h 14.8 km/h 59% 0.0 mm
22:09 13.9 °C 6.2 °C 1016.6 hPa SO 9.5 km/h 15.6 km/h 59.5% 0.0 mm
22:14 13.9 °C 6.3 °C 1016.6 hPa SO 9.5 km/h 16.1 km/h 60% 0.0 mm
22:19 13.9 °C 6.2 °C 1016.6 hPa SSO 9.5 km/h 16.1 km/h 59.8% 0.0 mm
22:24 13.9 °C 6.3 °C 1016.8 hPa SSO 9.5 km/h 14.5 km/h 60% 0.0 mm
22:29 13.9 °C 6.3 °C 1016.8 hPa SSO 9.5 km/h 12.9 km/h 60% 0.0 mm
22:34 13.8 °C 6.2 °C 1016.8 hPa SSO 8.3 km/h 14.8 km/h 60% 0.0 mm
22:39 13.8 °C 6.2 °C 1016.9 hPa SSO 7.6 km/h 14.8 km/h 60.2% 0.0 mm
22:44 13.7 °C 6.3 °C 1016.9 hPa SSO 8.2 km/h 15.6 km/h 61% 0.0 mm
22:49 13.5 °C 6.2 °C 1016.9 hPa SO 8.7 km/h 16.1 km/h 61.1% 0.0 mm
22:54 13.4 °C 6.3 °C 1017.0 hPa SSO 8.7 km/h 15.6 km/h 61.9% 0.0 mm
22:59 13.4 °C 6.3 °C 1017.0 hPa SSO 8.7 km/h 18.5 km/h 62% 0.0 mm
23:04 13.4 °C 6.3 °C 1017.0 hPa SSO 9.7 km/h 20.4 km/h 62% 0.0 mm
23:09 13.3 °C 6.2 °C 1017.0 hPa SSO 10.3 km/h 22.2 km/h 62% 0.0 mm
23:14 13.3 °C 6.2 °C 1016.8 hPa SSO 10.3 km/h 22.5 km/h 62% 0.0 mm
23:19 13.2 °C 6.3 °C 1016.8 hPa SSO 10.3 km/h 19.3 km/h 62.7% 0.0 mm
23:24 13.2 °C 6.3 °C 1016.8 hPa SSO 11.3 km/h 19.3 km/h 63% 0.0 mm
23:29 13.2 °C 6.3 °C 1016.7 hPa SSO 11.9 km/h 19.3 km/h 63% 0.0 mm
23:34 13.2 °C 6.2 °C 1016.7 hPa SO 10.9 km/h 16.1 km/h 63% 0.0 mm
23:39 13.1 °C 6.2 °C 1016.8 hPa SO 10.3 km/h 15.6 km/h 63% 0.0 mm
23:44 13 °C 6.1 °C 1016.8 hPa SSO 9.2 km/h 16.1 km/h 63% 0.0 mm
23:49 12.9 °C 6 °C 1016.8 hPa SSO 8.4 km/h 13.7 km/h 63% 0.0 mm
23:54 12.9 °C 6 °C 1016.8 hPa SSO 9 km/h 15.6 km/h 63% 0.0 mm
23:59 12.9 °C 6 °C 1016.7 hPa SSO 9.5 km/h 16.7 km/h 63% 0.0 mm
Murcia-Puente Tocinos, España
Compliments of Weather Underground - 3 mb

La estación de MeteoMurcia.com, publica sus datos en los siguientes proyectos:

Weather Underground PWS IMURCIAP2 Meteoclimatic www.awekas.at

W3Counter
Web Analytics